Church, Iowa
Current Conditions -  °F | °C
As of 3:15 AM on Friday 31 Oct 2014 (Local Time) from KDEH Reporting Station
Broken Clouds Broken Clouds  
Wind Chill: 18°   Ceiling: 5500
Heat Index: 30°   Visibility: 10mi
Dew Point: 16°   Wind: 18mph
Humidity: 55%   Direction: 340°NNW
Pressure: 30.28"   Gusts: 26mph
Location:  43.3826°N, 91.3585°W
Report Text: KDEH 310815Z AUTO 34016G23KT 10SM FEW030 SCT049 BKN055 M01/M09 A3028 RMK AO2
Loading
Personal Weather Stations






























Interactive Weather Map
Tropical Storm Tracking
New forecast layout! Learn more

10-Day Weather Forecast

Advertisements
Track Severe Weather on mobile